createdAt,value
2018-07-31T14:56:16.735Z,98892
2018-07-31T14:56:30.988Z,99869
2018-07-31T14:56:44.839Z,101577
2018-07-31T14:56:55.788Z,101946
2018-07-31T14:57:06.803Z,102397
2018-07-31T14:57:17.809Z,103150
2018-07-31T14:57:28.826Z,103681
2018-07-31T14:57:40.789Z,104220
2018-07-31T14:57:51.783Z,104747
2018-07-31T14:58:02.815Z,105873
2018-07-31T14:58:13.738Z,107338
2018-07-31T14:58:24.808Z,228723
2018-07-31T14:58:36.325Z,229222
2018-07-31T14:58:47.485Z,229852
2018-07-31T14:58:58.452Z,229773
2018-07-31T14:59:09.426Z,230202
2018-07-31T14:59:20.393Z,230461
2018-07-31T14:59:32.062Z,230554
2018-07-31T14:59:43.724Z,231021
2018-07-31T14:59:55.895Z,231409
2018-07-31T15:00:07.063Z,231943
2018-07-31T15:00:20.910Z,232617
2018-07-31T15:00:32.027Z,233435
2018-07-31T15:00:42.979Z,234323
2018-07-31T15:00:54.067Z,235272
2018-07-31T15:01:12.565Z,237252
2018-07-31T15:01:23.590Z,238622
2018-07-31T15:01:38.332Z,239898
2018-07-31T15:01:53.540Z,262092
2018-07-31T15:02:05.773Z,107
2018-07-31T15:02:17.670Z,276
2018-07-31T15:02:28.627Z,406
2018-07-31T15:02:39.588Z,502
2018-07-31T15:02:50.500Z,607
2018-07-31T15:03:01.483Z,744
2018-07-31T15:03:16.133Z,898
2018-07-31T15:03:27.087Z,958
2018-07-31T15:03:38.482Z,998
2018-07-31T15:03:49.554Z,1050
2018-07-31T15:04:08.791Z,1097
2018-07-31T15:04:29.170Z,1248
2018-07-31T15:04:47.782Z,1360
2018-07-31T15:05:04.384Z,1507
2018-07-31T15:05:22.641Z,1709
2018-07-31T15:05:41.017Z,2020
